sensor_id;sensor_type;location;lat;lon;timestamp;P1;durP1;ratioP1;P2;durP2;ratioP2
13693;SDS011;6919;52.344;14.518;2023-07-29T00:01:17;1.33;;;1.23;;
13693;SDS011;6919;52.344;14.518;2023-07-29T00:03:45;2.23;;;1.60;;
13693;SDS011;6919;52.344;14.518;2023-07-29T00:06:13;1.30;;;1.00;;
13693;SDS011;6919;52.344;14.518;2023-07-29T00:08:41;1.27;;;1.17;;
13693;SDS011;6919;52.344;14.518;2023-07-29T00:11:10;1.13;;;1.03;;
13693;SDS011;6919;52.344;14.518;2023-07-29T00:13:38;1.23;;;1.13;;
13693;SDS011;6919;52.344;14.518;2023-07-29T00:16:07;1.00;;;0.90;;
13693;SDS011;6919;52.344;14.518;2023-07-29T00:18:36;1.63;;;1.40;;
13693;SDS011;6919;52.344;14.518;2023-07-29T00:21:04;1.40;;;1.30;;
13693;SDS011;6919;52.344;14.518;2023-07-29T00:23:33;1.20;;;1.10;;
13693;SDS011;6919;52.344;14.518;2023-07-29T00:26:01;1.20;;;1.10;;
13693;SDS011;6919;52.344;14.518;2023-07-29T00:28:29;1.13;;;1.03;;
13693;SDS011;6919;52.344;14.518;2023-07-29T00:30:57;0.87;;;0.87;;
13693;SDS011;6919;52.344;14.518;2023-07-29T00:33:27;1.93;;;1.40;;
13693;SDS011;6919;52.344;14.518;2023-07-29T00:35:56;1.17;;;1.07;;
13693;SDS011;6919;52.344;14.518;2023-07-29T00:38:27;1.27;;;1.13;;
13693;SDS011;6919;52.344;14.518;2023-07-29T00:40:56;1.80;;;1.33;;
13693;SDS011;6919;52.344;14.518;2023-07-29T00:43:27;1.37;;;1.27;;
13693;SDS011;6919;52.344;14.518;2023-07-29T00:45:55;1.37;;;1.27;;
13693;SDS011;6919;52.344;14.518;2023-07-29T00:48:27;1.40;;;1.30;;
13693;SDS011;6919;52.344;14.518;2023-07-29T00:50:56;1.43;;;1.33;;
13693;SDS011;6919;52.344;14.518;2023-07-29T00:53:24;1.07;;;0.97;;
13693;SDS011;6919;52.344;14.518;2023-07-29T00:55:54;2.07;;;1.27;;
13693;SDS011;6919;52.344;14.518;2023-07-29T00:58:23;1.73;;;1.47;;
13693;SDS011;6919;52.344;14.518;2023-07-29T01:00:52;1.43;;;1.30;;
13693;SDS011;6919;52.344;14.518;2023-07-29T01:03:22;1.10;;;1.00;;
13693;SDS011;6919;52.344;14.518;2023-07-29T01:06:01;1.40;;;1.30;;
13693;SDS011;6919;52.344;14.518;2023-07-29T01:08:43;1.07;;;0.97;;
13693;SDS011;6919;52.344;14.518;2023-07-29T01:11:26;1.60;;;1.30;;
13693;SDS011;6919;52.344;14.518;2023-07-29T01:14:10;1.20;;;1.10;;
13693;SDS011;6919;52.344;14.518;2023-07-29T01:16:52;1.27;;;1.17;;
13693;SDS011;6919;52.344;14.518;2023-07-29T01:19:30;0.70;;;0.70;;
13693;SDS011;6919;52.344;14.518;2023-07-29T01:22:23;0.73;;;0.73;;
13693;SDS011;6919;52.344;14.518;2023-07-29T01:24:54;1.23;;;1.13;;
13693;SDS011;6919;52.344;14.518;2023-07-29T01:27:22;1.30;;;1.20;;
13693;SDS011;6919;52.344;14.518;2023-07-29T01:29:50;1.10;;;1.00;;
13693;SDS011;6919;52.344;14.518;2023-07-29T01:32:21;1.57;;;1.37;;
13693;SDS011;6919;52.344;14.518;2023-07-29T01:34:59;1.10;;;1.00;;
13693;SDS011;6919;52.344;14.518;2023-07-29T01:37:36;1.33;;;1.13;;
13693;SDS011;6919;52.344;14.518;2023-07-29T01:40:09;1.20;;;1.10;;
13693;SDS011;6919;52.344;14.518;2023-07-29T01:42:38;1.67;;;1.57;;
13693;SDS011;6919;52.344;14.518;2023-07-29T01:45:07;1.67;;;1.07;;
13693;SDS011;6919;52.344;14.518;2023-07-29T01:47:36;1.77;;;1.67;;
13693;SDS011;6919;52.344;14.518;2023-07-29T01:50:07;1.13;;;1.03;;
13693;SDS011;6919;52.344;14.518;2023-07-29T01:52:36;1.70;;;1.33;;
13693;SDS011;6919;52.344;14.518;2023-07-29T01:55:05;1.30;;;1.20;;
13693;SDS011;6919;52.344;14.518;2023-07-29T01:57:35;1.80;;;1.37;;
13693;SDS011;6919;52.344;14.518;2023-07-29T02:00:04;1.20;;;1.10;;
13693;SDS011;6919;52.344;14.518;2023-07-29T02:02:34;1.77;;;1.20;;
13693;SDS011;6919;52.344;14.518;2023-07-29T02:05:02;1.83;;;1.50;;
13693;SDS011;6919;52.344;14.518;2023-07-29T02:07:31;1.10;;;1.00;;
13693;SDS011;6919;52.344;14.518;2023-07-29T02:09:59;1.90;;;1.40;;
13693;SDS011;6919;52.344;14.518;2023-07-29T02:12:28;1.20;;;1.10;;
13693;SDS011;6919;52.344;14.518;2023-07-29T02:14:57;1.17;;;1.07;;
13693;SDS011;6919;52.344;14.518;2023-07-29T02:17:26;1.33;;;1.23;;
13693;SDS011;6919;52.344;14.518;2023-07-29T02:19:54;1.17;;;1.07;;
13693;SDS011;6919;52.344;14.518;2023-07-29T02:22:22;0.97;;;0.97;;
13693;SDS011;6919;52.344;14.518;2023-07-29T02:24:50;1.17;;;1.07;;
13693;SDS011;6919;52.344;14.518;2023-07-29T02:27:19;1.03;;;0.93;;
13693;SDS011;6919;52.344;14.518;2023-07-29T02:29:47;2.13;;;1.23;;
13693;SDS011;6919;52.344;14.518;2023-07-29T02:32:16;1.43;;;1.33;;
13693;SDS011;6919;52.344;14.518;2023-07-29T02:34:45;2.23;;;1.67;;
13693;SDS011;6919;52.344;14.518;2023-07-29T02:37:13;1.40;;;1.30;;
13693;SDS011;6919;52.344;14.518;2023-07-29T02:39:41;1.67;;;1.57;;
13693;SDS011;6919;52.344;14.518;2023-07-29T02:42:10;1.63;;;1.30;;
13693;SDS011;6919;52.344;14.518;2023-07-29T02:44:38;1.20;;;1.10;;
13693;SDS011;6919;52.344;14.518;2023-07-29T02:47:07;1.57;;;1.20;;
13693;SDS011;6919;52.344;14.518;2023-07-29T02:49:38;1.93;;;1.70;;
13693;SDS011;6919;52.344;14.518;2023-07-29T02:52:07;1.10;;;1.03;;
13693;SDS011;6919;52.344;14.518;2023-07-29T02:54:35;0.80;;;0.80;;
13693;SDS011;6919;52.344;14.518;2023-07-29T02:57:03;1.77;;;1.33;;
13693;SDS011;6919;52.344;14.518;2023-07-29T02:59:32;1.20;;;1.10;;
13693;SDS011;6919;52.344;14.518;2023-07-29T03:02:00;1.90;;;1.60;;
13693;SDS011;6919;52.344;14.518;2023-07-29T03:04:28;1.47;;;1.23;;
13693;SDS011;6919;52.344;14.518;2023-07-29T03:07:01;2.03;;;1.30;;
13693;SDS011;6919;52.344;14.518;2023-07-29T03:09:29;2.07;;;1.43;;
13693;SDS011;6919;52.344;14.518;2023-07-29T03:11:59;1.20;;;0.93;;
13693;SDS011;6919;52.344;14.518;2023-07-29T03:14:27;1.27;;;1.00;;
13693;SDS011;6919;52.344;14.518;2023-07-29T03:16:55;1.70;;;1.60;;
13693;SDS011;6919;52.344;14.518;2023-07-29T03:19:24;2.63;;;1.57;;
13693;SDS011;6919;52.344;14.518;2023-07-29T03:21:52;1.10;;;0.90;;
13693;SDS011;6919;52.344;14.518;2023-07-29T03:24:22;1.20;;;1.10;;
13693;SDS011;6919;52.344;14.518;2023-07-29T03:26:53;1.20;;;1.10;;
13693;SDS011;6919;52.344;14.518;2023-07-29T03:29:21;2.47;;;1.53;;
13693;SDS011;6919;52.344;14.518;2023-07-29T03:31:49;1.70;;;1.60;;
13693;SDS011;6919;52.344;14.518;2023-07-29T03:34:18;1.13;;;1.00;;
13693;SDS011;6919;52.344;14.518;2023-07-29T03:36:46;1.60;;;1.50;;
13693;SDS011;6919;52.344;14.518;2023-07-29T03:39:15;1.93;;;1.20;;
13693;SDS011;6919;52.344;14.518;2023-07-29T03:41:44;3.47;;;1.77;;
13693;SDS011;6919;52.344;14.518;2023-07-29T03:44:12;1.13;;;1.03;;
13693;SDS011;6919;52.344;14.518;2023-07-29T03:46:44;1.97;;;1.73;;
13693;SDS011;6919;52.344;14.518;2023-07-29T03:49:13;1.93;;;1.73;;
13693;SDS011;6919;52.344;14.518;2023-07-29T03:51:41;1.67;;;1.23;;
13693;SDS011;6919;52.344;14.518;2023-07-29T03:54:09;1.73;;;1.23;;
13693;SDS011;6919;52.344;14.518;2023-07-29T03:56:37;1.77;;;1.67;;
13693;SDS011;6919;52.344;14.518;2023-07-29T03:59:07;2.23;;;1.90;;
13693;SDS011;6919;52.344;14.518;2023-07-29T04:01:35;1.70;;;1.17;;
13693;SDS011;6919;52.344;14.518;2023-07-29T04:04:03;1.17;;;1.07;;
13693;SDS011;6919;52.344;14.518;2023-07-29T04:06:32;1.33;;;1.13;;
13693;SDS011;6919;52.344;14.518;2023-07-29T04:09:00;1.40;;;1.10;;
13693;SDS011;6919;52.344;14.518;2023-07-29T04:11:29;1.50;;;1.40;;
13693;SDS011;6919;52.344;14.518;2023-07-29T04:13:58;1.97;;;1.30;;
13693;SDS011;6919;52.344;14.518;2023-07-29T04:16:27;1.33;;;1.10;;
13693;SDS011;6919;52.344;14.518;2023-07-29T04:18:56;1.30;;;1.20;;
13693;SDS011;6919;52.344;14.518;2023-07-29T04:21:24;1.53;;;1.30;;
13693;SDS011;6919;52.344;14.518;2023-07-29T04:23:53;1.67;;;1.03;;
13693;SDS011;6919;52.344;14.518;2023-07-29T04:26:21;1.67;;;1.20;;
13693;SDS011;6919;52.344;14.518;2023-07-29T04:28:50;1.87;;;1.40;;
13693;SDS011;6919;52.344;14.518;2023-07-29T04:31:18;1.17;;;1.07;;
13693;SDS011;6919;52.344;14.518;2023-07-29T04:33:48;0.97;;;0.97;;
13693;SDS011;6919;52.344;14.518;2023-07-29T04:36:16;1.13;;;1.03;;
13693;SDS011;6919;52.344;14.518;2023-07-29T04:38:44;1.97;;;1.63;;
13693;SDS011;6919;52.344;14.518;2023-07-29T04:41:12;1.00;;;1.00;;
13693;SDS011;6919;52.344;14.518;2023-07-29T04:43:41;1.53;;;1.43;;
13693;SDS011;6919;52.344;14.518;2023-07-29T04:46:09;2.00;;;1.10;;
13693;SDS011;6919;52.344;14.518;2023-07-29T04:48:37;4.83;;;2.17;;
13693;SDS011;6919;52.344;14.518;2023-07-29T04:51:07;1.57;;;1.47;;
13693;SDS011;6919;52.344;14.518;2023-07-29T04:53:35;1.40;;;1.30;;
13693;SDS011;6919;52.344;14.518;2023-07-29T04:56:04;1.57;;;1.20;;
13693;SDS011;6919;52.344;14.518;2023-07-29T04:58:32;1.67;;;1.23;;
13693;SDS011;6919;52.344;14.518;2023-07-29T05:01:01;1.83;;;1.63;;
13693;SDS011;6919;52.344;14.518;2023-07-29T05:03:31;1.30;;;1.20;;
13693;SDS011;6919;52.344;14.518;2023-07-29T05:05:59;1.70;;;1.60;;
13693;SDS011;6919;52.344;14.518;2023-07-29T05:08:29;1.37;;;1.23;;
13693;SDS011;6919;52.344;14.518;2023-07-29T05:10:57;3.00;;;1.67;;
13693;SDS011;6919;52.344;14.518;2023-07-29T05:13:25;1.47;;;1.37;;
13693;SDS011;6919;52.344;14.518;2023-07-29T05:15:53;1.67;;;1.57;;
13693;SDS011;6919;52.344;14.518;2023-07-29T05:18:22;1.23;;;1.13;;
13693;SDS011;6919;52.344;14.518;2023-07-29T05:20:50;1.63;;;1.47;;
13693;SDS011;6919;52.344;14.518;2023-07-29T05:23:19;1.63;;;1.53;;
13693;SDS011;6919;52.344;14.518;2023-07-29T05:25:48;2.20;;;1.57;;
13693;SDS011;6919;52.344;14.518;2023-07-29T05:28:16;1.40;;;1.30;;
13693;SDS011;6919;52.344;14.518;2023-07-29T05:30:45;2.50;;;1.73;;
13693;SDS011;6919;52.344;14.518;2023-07-29T05:33:13;1.60;;;1.50;;
13693;SDS011;6919;52.344;14.518;2023-07-29T05:35:41;2.23;;;1.80;;
13693;SDS011;6919;52.344;14.518;2023-07-29T05:38:10;4.03;;;1.00;;
13693;SDS011;6919;52.344;14.518;2023-07-29T05:40:38;2.73;;;1.83;;
13693;SDS011;6919;52.344;14.518;2023-07-29T05:43:08;1.40;;;1.27;;
13693;SDS011;6919;52.344;14.518;2023-07-29T05:45:36;2.73;;;1.47;;
13693;SDS011;6919;52.344;14.518;2023-07-29T05:48:04;1.50;;;1.40;;
13693;SDS011;6919;52.344;14.518;2023-07-29T05:50:32;2.07;;;1.40;;
13693;SDS011;6919;52.344;14.518;2023-07-29T05:53:01;1.37;;;1.27;;
13693;SDS011;6919;52.344;14.518;2023-07-29T05:55:29;1.40;;;1.20;;
13693;SDS011;6919;52.344;14.518;2023-07-29T05:57:57;1.40;;;1.30;;
13693;SDS011;6919;52.344;14.518;2023-07-29T06:00:27;1.30;;;1.20;;
13693;SDS011;6919;52.344;14.518;2023-07-29T06:02:56;1.60;;;0.90;;
13693;SDS011;6919;52.344;14.518;2023-07-29T06:05:24;1.10;;;1.00;;
13693;SDS011;6919;52.344;14.518;2023-07-29T06:07:52;1.23;;;0.87;;
13693;SDS011;6919;52.344;14.518;2023-07-29T06:10:20;1.13;;;1.03;;
13693;SDS011;6919;52.344;14.518;2023-07-29T06:12:49;0.97;;;0.97;;
13693;SDS011;6919;52.344;14.518;2023-07-29T06:15:18;1.43;;;1.30;;
13693;SDS011;6919;52.344;14.518;2023-07-29T06:17:50;1.10;;;1.00;;
13693;SDS011;6919;52.344;14.518;2023-07-29T06:20:22;1.00;;;1.00;;
13693;SDS011;6919;52.344;14.518;2023-07-29T06:22:50;0.77;;;0.73;;
13693;SDS011;6919;52.344;14.518;2023-07-29T06:25:19;1.43;;;1.00;;
13693;SDS011;6919;52.344;14.518;2023-07-29T06:27:48;1.47;;;1.00;;
13693;SDS011;6919;52.344;14.518;2023-07-29T06:30:17;0.77;;;0.77;;
13693;SDS011;6919;52.344;14.518;2023-07-29T06:32:45;4.63;;;1.50;;
13693;SDS011;6919;52.344;14.518;2023-07-29T06:35:15;0.83;;;0.80;;
13693;SDS011;6919;52.344;14.518;2023-07-29T06:37:44;1.10;;;1.03;;
13693;SDS011;6919;52.344;14.518;2023-07-29T06:40:12;1.37;;;1.27;;
13693;SDS011;6919;52.344;14.518;2023-07-29T06:42:40;1.20;;;1.10;;
13693;SDS011;6919;52.344;14.518;2023-07-29T06:45:09;1.27;;;1.17;;
13693;SDS011;6919;52.344;14.518;2023-07-29T06:47:37;0.73;;;0.73;;
13693;SDS011;6919;52.344;14.518;2023-07-29T06:50:06;1.20;;;0.93;;
13693;SDS011;6919;52.344;14.518;2023-07-29T06:52:37;1.27;;;0.90;;
13693;SDS011;6919;52.344;14.518;2023-07-29T06:55:07;1.13;;;1.00;;
13693;SDS011;6919;52.344;14.518;2023-07-29T06:57:35;1.10;;;1.00;;
13693;SDS011;6919;52.344;14.518;2023-07-29T07:00:05;0.90;;;0.80;;
13693;SDS011;6919;52.344;14.518;2023-07-29T07:02:35;0.93;;;0.90;;
13693;SDS011;6919;52.344;14.518;2023-07-29T07:05:04;0.70;;;0.70;;
13693;SDS011;6919;52.344;14.518;2023-07-29T07:07:33;0.77;;;0.77;;
13693;SDS011;6919;52.344;14.518;2023-07-29T07:10:03;0.90;;;0.87;;
13693;SDS011;6919;52.344;14.518;2023-07-29T07:12:32;0.80;;;0.70;;
13693;SDS011;6919;52.344;14.518;2023-07-29T07:15:00;0.90;;;0.77;;
13693;SDS011;6919;52.344;14.518;2023-07-29T07:17:29;0.80;;;0.80;;
13693;SDS011;6919;52.344;14.518;2023-07-29T07:19:57;0.87;;;0.83;;
13693;SDS011;6919;52.344;14.518;2023-07-29T07:22:25;1.03;;;0.80;;
13693;SDS011;6919;52.344;14.518;2023-07-29T07:24:54;1.43;;;1.00;;
13693;SDS011;6919;52.344;14.518;2023-07-29T07:27:23;1.03;;;1.00;;
13693;SDS011;6919;52.344;14.518;2023-07-29T07:29:52;1.47;;;1.10;;
13693;SDS011;6919;52.344;14.518;2023-07-29T07:32:20;1.00;;;0.90;;
13693;SDS011;6919;52.344;14.518;2023-07-29T07:34:48;0.80;;;0.67;;
13693;SDS011;6919;52.344;14.518;2023-07-29T07:37:16;1.13;;;1.00;;
13693;SDS011;6919;52.344;14.518;2023-07-29T07:39:45;1.03;;;0.97;;
13693;SDS011;6919;52.344;14.518;2023-07-29T07:42:13;1.80;;;1.13;;
13693;SDS011;6919;52.344;14.518;2023-07-29T07:44:42;0.70;;;0.70;;
13693;SDS011;6919;52.344;14.518;2023-07-29T07:47:11;0.50;;;0.50;;
13693;SDS011;6919;52.344;14.518;2023-07-29T07:49:39;0.80;;;0.80;;
13693;SDS011;6919;52.344;14.518;2023-07-29T07:52:07;0.80;;;0.80;;
13693;SDS011;6919;52.344;14.518;2023-07-29T07:54:35;0.70;;;0.70;;
13693;SDS011;6919;52.344;14.518;2023-07-29T07:57:04;0.73;;;0.73;;
13693;SDS011;6919;52.344;14.518;2023-07-29T07:59:33;0.80;;;0.80;;
13693;SDS011;6919;52.344;14.518;2023-07-29T08:02:03;0.87;;;0.80;;
13693;SDS011;6919;52.344;14.518;2023-07-29T08:04:32;0.70;;;0.70;;
13693;SDS011;6919;52.344;14.518;2023-07-29T08:07:00;0.67;;;0.67;;
13693;SDS011;6919;52.344;14.518;2023-07-29T08:09:28;0.80;;;0.70;;
13693;SDS011;6919;52.344;14.518;2023-07-29T08:11:57;0.97;;;0.97;;
13693;SDS011;6919;52.344;14.518;2023-07-29T08:14:25;1.10;;;1.00;;
13693;SDS011;6919;52.344;14.518;2023-07-29T08:16:53;0.77;;;0.77;;
13693;SDS011;6919;52.344;14.518;2023-07-29T08:19:23;0.80;;;0.80;;
13693;SDS011;6919;52.344;14.518;2023-07-29T08:21:51;0.60;;;0.60;;
13693;SDS011;6919;52.344;14.518;2023-07-29T08:24:19;0.83;;;0.73;;
13693;SDS011;6919;52.344;14.518;2023-07-29T08:26:48;0.60;;;0.60;;
13693;SDS011;6919;52.344;14.518;2023-07-29T08:29:16;1.30;;;0.60;;
13693;SDS011;6919;52.344;14.518;2023-07-29T08:31:46;0.63;;;0.63;;
13693;SDS011;6919;52.344;14.518;2023-07-29T08:34:16;1.10;;;1.00;;
13693;SDS011;6919;52.344;14.518;2023-07-29T08:36:46;0.53;;;0.53;;
13693;SDS011;6919;52.344;14.518;2023-07-29T08:39:14;0.40;;;0.40;;
13693;SDS011;6919;52.344;14.518;2023-07-29T08:41:45;0.80;;;0.80;;
13693;SDS011;6919;52.344;14.518;2023-07-29T08:44:21;0.37;;;0.37;;
13693;SDS011;6919;52.344;14.518;2023-07-29T08:46:51;1.37;;;0.77;;
13693;SDS011;6919;52.344;14.518;2023-07-29T08:49:21;0.90;;;0.90;;
13693;SDS011;6919;52.344;14.518;2023-07-29T08:51:52;0.90;;;0.90;;
13693;SDS011;6919;52.344;14.518;2023-07-29T08:54:29;1.27;;;0.80;;
13693;SDS011;6919;52.344;14.518;2023-07-29T08:56:58;0.53;;;0.50;;
13693;SDS011;6919;52.344;14.518;2023-07-29T08:59:27;1.23;;;0.80;;
13693;SDS011;6919;52.344;14.518;2023-07-29T09:01:56;0.80;;;0.80;;
13693;SDS011;6919;52.344;14.518;2023-07-29T09:04:29;0.30;;;0.30;;
13693;SDS011;6919;52.344;14.518;2023-07-29T09:06:57;0.50;;;0.50;;
13693;SDS011;6919;52.344;14.518;2023-07-29T09:09:27;1.50;;;0.77;;
13693;SDS011;6919;52.344;14.518;2023-07-29T09:11:57;1.20;;;1.00;;
13693;SDS011;6919;52.344;14.518;2023-07-29T09:14:25;0.93;;;0.83;;
13693;SDS011;6919;52.344;14.518;2023-07-29T09:16:55;1.10;;;0.77;;
13693;SDS011;6919;52.344;14.518;2023-07-29T09:19:24;0.70;;;0.70;;
13693;SDS011;6919;52.344;14.518;2023-07-29T09:21:53;0.70;;;0.70;;
13693;SDS011;6919;52.344;14.518;2023-07-29T09:24:22;0.60;;;0.60;;
13693;SDS011;6919;52.344;14.518;2023-07-29T09:26:52;1.00;;;0.77;;
13693;SDS011;6919;52.344;14.518;2023-07-29T09:29:22;0.50;;;0.50;;
13693;SDS011;6919;52.344;14.518;2023-07-29T09:31:51;0.80;;;0.80;;
13693;SDS011;6919;52.344;14.518;2023-07-29T09:34:19;0.50;;;0.50;;
13693;SDS011;6919;52.344;14.518;2023-07-29T09:36:49;0.70;;;0.70;;
13693;SDS011;6919;52.344;14.518;2023-07-29T09:39:18;0.50;;;0.40;;
13693;SDS011;6919;52.344;14.518;2023-07-29T09:41:52;0.50;;;0.50;;
13693;SDS011;6919;52.344;14.518;2023-07-29T09:44:20;0.77;;;0.70;;
13693;SDS011;6919;52.344;14.518;2023-07-29T09:46:49;0.60;;;0.60;;
13693;SDS011;6919;52.344;14.518;2023-07-29T09:49:17;0.40;;;0.40;;
13693;SDS011;6919;52.344;14.518;2023-07-29T09:51:45;0.80;;;0.80;;
13693;SDS011;6919;52.344;14.518;2023-07-29T09:54:13;1.00;;;0.70;;
13693;SDS011;6919;52.344;14.518;2023-07-29T09:56:42;0.57;;;0.57;;
13693;SDS011;6919;52.344;14.518;2023-07-29T09:59:12;0.50;;;0.50;;
13693;SDS011;6919;52.344;14.518;2023-07-29T10:01:41;0.50;;;0.50;;
13693;SDS011;6919;52.344;14.518;2023-07-29T10:04:10;0.63;;;0.63;;
13693;SDS011;6919;52.344;14.518;2023-07-29T10:06:41;0.70;;;0.70;;
13693;SDS011;6919;52.344;14.518;2023-07-29T10:09:10;0.60;;;0.60;;
13693;SDS011;6919;52.344;14.518;2023-07-29T10:11:39;0.40;;;0.40;;
13693;SDS011;6919;52.344;14.518;2023-07-29T10:14:09;0.57;;;0.57;;
13693;SDS011;6919;52.344;14.518;2023-07-29T10:16:40;0.43;;;0.43;;
13693;SDS011;6919;52.344;14.518;2023-07-29T10:19:11;0.73;;;0.70;;
13693;SDS011;6919;52.344;14.518;2023-07-29T10:21:43;0.53;;;0.53;;
13693;SDS011;6919;52.344;14.518;2023-07-29T10:24:16;0.80;;;0.70;;
13693;SDS011;6919;52.344;14.518;2023-07-29T10:26:55;0.60;;;0.60;;
13693;SDS011;6919;52.344;14.518;2023-07-29T10:29:28;0.57;;;0.57;;
13693;SDS011;6919;52.344;14.518;2023-07-29T10:32:02;0.90;;;0.80;;
13693;SDS011;6919;52.344;14.518;2023-07-29T10:34:33;0.53;;;0.50;;
13693;SDS011;6919;52.344;14.518;2023-07-29T10:37:03;0.63;;;0.63;;
13693;SDS011;6919;52.344;14.518;2023-07-29T10:39:37;1.37;;;1.00;;
13693;SDS011;6919;52.344;14.518;2023-07-29T10:42:06;0.50;;;0.50;;
13693;SDS011;6919;52.344;14.518;2023-07-29T10:44:47;0.50;;;0.50;;
13693;SDS011;6919;52.344;14.518;2023-07-29T10:47:20;0.47;;;0.47;;
13693;SDS011;6919;52.344;14.518;2023-07-29T10:49:52;0.60;;;0.60;;
13693;SDS011;6919;52.344;14.518;2023-07-29T10:52:30;0.40;;;0.40;;
13693;SDS011;6919;52.344;14.518;2023-07-29T10:55:26;0.40;;;0.40;;
13693;SDS011;6919;52.344;14.518;2023-07-29T10:58:07;0.70;;;0.70;;
13693;SDS011;6919;52.344;14.518;2023-07-29T11:00:41;0.57;;;0.57;;
13693;SDS011;6919;52.344;14.518;2023-07-29T11:03:12;0.70;;;0.70;;
13693;SDS011;6919;52.344;14.518;2023-07-29T11:05:43;0.43;;;0.43;;
13693;SDS011;6919;52.344;14.518;2023-07-29T11:08:18;0.60;;;0.60;;
13693;SDS011;6919;52.344;14.518;2023-07-29T11:13:36;0.80;;;0.70;;
13693;SDS011;6919;52.344;14.518;2023-07-29T11:16:05;0.60;;;0.60;;
13693;SDS011;6919;52.344;14.518;2023-07-29T11:18:35;0.60;;;0.60;;
13693;SDS011;6919;52.344;14.518;2023-07-29T11:21:03;0.50;;;0.50;;
13693;SDS011;6919;52.344;14.518;2023-07-29T11:23:33;0.68;;;0.68;;
13693;SDS011;6919;52.344;14.518;2023-07-29T11:26:04;0.45;;;0.40;;
13693;SDS011;6919;52.344;14.518;2023-07-29T11:28:37;0.50;;;0.50;;
13693;SDS011;6919;52.344;14.518;2023-07-29T11:31:07;0.57;;;0.57;;
13693;SDS011;6919;52.344;14.518;2023-07-29T11:33:38;0.90;;;0.77;;
13693;SDS011;6919;52.344;14.518;2023-07-29T11:36:16;0.57;;;0.50;;
13693;SDS011;6919;52.344;14.518;2023-07-29T11:38:46;0.40;;;0.40;;
13693;SDS011;6919;52.344;14.518;2023-07-29T11:41:18;0.40;;;0.40;;
13693;SDS011;6919;52.344;14.518;2023-07-29T11:43:48;0.40;;;0.40;;
13693;SDS011;6919;52.344;14.518;2023-07-29T11:46:20;0.43;;;0.43;;
13693;SDS011;6919;52.344;14.518;2023-07-29T11:48:53;0.60;;;0.60;;
13693;SDS011;6919;52.344;14.518;2023-07-29T11:51:22;0.40;;;0.40;;
13693;SDS011;6919;52.344;14.518;2023-07-29T11:53:52;0.60;;;0.60;;
13693;SDS011;6919;52.344;14.518;2023-07-29T11:56:22;1.10;;;1.00;;
13693;SDS011;6919;52.344;14.518;2023-07-29T11:58:51;0.30;;;0.30;;
13693;SDS011;6919;52.344;14.518;2023-07-29T12:01:21;0.40;;;0.40;;
13693;SDS011;6919;52.344;14.518;2023-07-29T12:03:51;0.40;;;0.40;;
13693;SDS011;6919;52.344;14.518;2023-07-29T12:06:21;0.50;;;0.40;;
13693;SDS011;6919;52.344;14.518;2023-07-29T12:08:50;0.47;;;0.47;;
13693;SDS011;6919;52.344;14.518;2023-07-29T12:11:19;1.33;;;0.73;;
13693;SDS011;6919;52.344;14.518;2023-07-29T12:13:48;0.40;;;0.40;;
13693;SDS011;6919;52.344;14.518;2023-07-29T12:16:16;0.77;;;0.77;;
13693;SDS011;6919;52.344;14.518;2023-07-29T12:18:45;0.70;;;0.70;;
13693;SDS011;6919;52.344;14.518;2023-07-29T12:21:16;0.67;;;0.60;;
13693;SDS011;6919;52.344;14.518;2023-07-29T12:23:46;0.50;;;0.50;;
13693;SDS011;6919;52.344;14.518;2023-07-29T12:26:17;0.70;;;0.70;;
13693;SDS011;6919;52.344;14.518;2023-07-29T12:28:45;0.70;;;0.60;;
13693;SDS011;6919;52.344;14.518;2023-07-29T12:31:14;0.38;;;0.38;;
13693;SDS011;6919;52.344;14.518;2023-07-29T12:33:42;0.50;;;0.50;;
13693;SDS011;6919;52.344;14.518;2023-07-29T12:36:11;0.40;;;0.40;;
13693;SDS011;6919;52.344;14.518;2023-07-29T12:38:40;0.57;;;0.50;;
13693;SDS011;6919;52.344;14.518;2023-07-29T12:41:10;0.45;;;0.45;;
13693;SDS011;6919;52.344;14.518;2023-07-29T12:43:38;0.55;;;0.55;;
13693;SDS011;6919;52.344;14.518;2023-07-29T12:46:07;0.47;;;0.47;;
13693;SDS011;6919;52.344;14.518;2023-07-29T12:48:35;0.77;;;0.60;;
13693;SDS011;6919;52.344;14.518;2023-07-29T12:51:03;0.53;;;0.53;;
13693;SDS011;6919;52.344;14.518;2023-07-29T12:53:31;0.30;;;0.30;;
13693;SDS011;6919;52.344;14.518;2023-07-29T12:56:01;0.53;;;0.53;;
13693;SDS011;6919;52.344;14.518;2023-07-29T12:58:29;0.50;;;0.50;;
13693;SDS011;6919;52.344;14.518;2023-07-29T13:00:58;0.93;;;0.80;;
13693;SDS011;6919;52.344;14.518;2023-07-29T13:03:26;0.50;;;0.50;;
13693;SDS011;6919;52.344;14.518;2023-07-29T13:05:55;0.47;;;0.47;;
13693;SDS011;6919;52.344;14.518;2023-07-29T13:08:23;0.70;;;0.60;;
13693;SDS011;6919;52.344;14.518;2023-07-29T13:10:52;0.73;;;0.60;;
13693;SDS011;6919;52.344;14.518;2023-07-29T13:13:21;0.63;;;0.63;;
13693;SDS011;6919;52.344;14.518;2023-07-29T13:15:49;0.50;;;0.50;;
13693;SDS011;6919;52.344;14.518;2023-07-29T13:18:18;0.27;;;0.27;;
13693;SDS011;6919;52.344;14.518;2023-07-29T13:20:48;0.43;;;0.30;;
13693;SDS011;6919;52.344;14.518;2023-07-29T13:23:16;0.30;;;0.30;;
13693;SDS011;6919;52.344;14.518;2023-07-29T13:25:45;0.47;;;0.40;;
13693;SDS011;6919;52.344;14.518;2023-07-29T13:28:13;0.40;;;0.33;;
13693;SDS011;6919;52.344;14.518;2023-07-29T13:30:43;0.50;;;0.50;;
13693;SDS011;6919;52.344;14.518;2023-07-29T13:33:12;0.30;;;0.30;;
13693;SDS011;6919;52.344;14.518;2023-07-29T13:35:40;0.40;;;0.40;;
13693;SDS011;6919;52.344;14.518;2023-07-29T13:38:08;0.20;;;0.20;;
13693;SDS011;6919;52.344;14.518;2023-07-29T13:40:37;1.13;;;0.57;;
13693;SDS011;6919;52.344;14.518;2023-07-29T13:43:05;0.20;;;0.20;;
13693;SDS011;6919;52.344;14.518;2023-07-29T13:45:34;0.90;;;0.70;;
13693;SDS011;6919;52.344;14.518;2023-07-29T13:48:04;0.30;;;0.30;;
13693;SDS011;6919;52.344;14.518;2023-07-29T13:50:32;0.37;;;0.37;;
13693;SDS011;6919;52.344;14.518;2023-07-29T13:53:00;0.40;;;0.40;;
13693;SDS011;6919;52.344;14.518;2023-07-29T13:55:29;0.60;;;0.60;;
13693;SDS011;6919;52.344;14.518;2023-07-29T13:57:57;0.50;;;0.50;;
13693;SDS011;6919;52.344;14.518;2023-07-29T14:00:25;0.50;;;0.50;;
13693;SDS011;6919;52.344;14.518;2023-07-29T14:02:54;0.50;;;0.50;;
13693;SDS011;6919;52.344;14.518;2023-07-29T14:05:23;0.43;;;0.23;;
13693;SDS011;6919;52.344;14.518;2023-07-29T14:07:52;0.27;;;0.27;;
13693;SDS011;6919;52.344;14.518;2023-07-29T14:10:20;1.13;;;0.83;;
13693;SDS011;6919;52.344;14.518;2023-07-29T14:12:48;0.37;;;0.37;;
13693;SDS011;6919;52.344;14.518;2023-07-29T14:15:17;0.30;;;0.30;;
13693;SDS011;6919;52.344;14.518;2023-07-29T14:17:46;0.40;;;0.40;;
13693;SDS011;6919;52.344;14.518;2023-07-29T14:20:14;0.67;;;0.67;;
13693;SDS011;6919;52.344;14.518;2023-07-29T14:22:46;0.60;;;0.57;;
13693;SDS011;6919;52.344;14.518;2023-07-29T14:25:15;0.43;;;0.43;;
13693;SDS011;6919;52.344;14.518;2023-07-29T14:27:44;0.53;;;0.53;;
13693;SDS011;6919;52.344;14.518;2023-07-29T14:30:12;0.60;;;0.60;;
13693;SDS011;6919;52.344;14.518;2023-07-29T14:32:41;0.30;;;0.30;;
13693;SDS011;6919;52.344;14.518;2023-07-29T14:35:09;2.20;;;0.67;;
13693;SDS011;6919;52.344;14.518;2023-07-29T14:37:38;0.63;;;0.63;;
13693;SDS011;6919;52.344;14.518;2023-07-29T14:40:08;0.33;;;0.33;;
13693;SDS011;6919;52.344;14.518;2023-07-29T14:42:37;0.40;;;0.40;;
13693;SDS011;6919;52.344;14.518;2023-07-29T14:45:06;0.60;;;0.60;;
13693;SDS011;6919;52.344;14.518;2023-07-29T14:47:35;0.57;;;0.57;;
13693;SDS011;6919;52.344;14.518;2023-07-29T14:50:03;0.70;;;0.70;;
13693;SDS011;6919;52.344;14.518;2023-07-29T14:52:32;0.50;;;0.50;;
13693;SDS011;6919;52.344;14.518;2023-07-29T14:55:01;0.73;;;0.70;;
13693;SDS011;6919;52.344;14.518;2023-07-29T14:57:31;0.53;;;0.53;;
13693;SDS011;6919;52.344;14.518;2023-07-29T15:00:00;0.50;;;0.50;;
13693;SDS011;6919;52.344;14.518;2023-07-29T15:02:29;0.30;;;0.30;;
13693;SDS011;6919;52.344;14.518;2023-07-29T15:04:58;0.57;;;0.57;;